Time;durP1;ratioP1;P1;durP2;ratioP2;P2;SDS_P1;SDS_P2;PMS_P1;PMS_P2;Temp;Humidity;BMP_temperature;BMP_pressure;BME280_temperature;BME280_humidity;BME280_pressure;Samples;Min_cycle;Max_cycle;Signal;HPM_P1;HPM_P2
2023/12/04 00:00:30;;;;;;;4.70;3.10;;;;;;;20.23;23.74;100573.34;4180225;28;20052;-46
2023/12/04 00:02:32;;;;;;;5.22;3.28;;;;;;;20.23;23.58;100556.47;4180124;28;20069;-50
2023/12/04 00:04:39;;;;;;;5.00;3.17;;;;;;;20.24;23.47;100556.38;4180198;28;20507;-51
2023/12/04 00:06:41;;;;;;;4.78;3.08;;;;;;;20.26;23.48;100557.06;4180215;28;20084;-49
2023/12/04 00:08:48;;;;;;;4.75;3.00;;;;;;;20.28;23.67;100546.28;4179846;28;20044;-47
2023/12/04 00:10:51;;;;;;;4.80;3.33;;;;;;;20.27;23.58;100541.91;4180171;28;20118;-48
2023/12/04 00:12:54;;;;;;;4.90;3.10;;;;;;;20.26;23.66;100533.03;4180151;28;20055;-48
2023/12/04 00:14:55;;;;;;;4.90;3.30;;;;;;;20.25;23.48;100534.00;4180045;28;20041;-47
2023/12/04 00:16:59;;;;;;;4.93;3.47;;;;;;;20.23;23.41;100527.09;4180151;28;20048;-49
2023/12/04 00:19:01;;;;;;;4.63;3.00;;;;;;;20.18;23.42;100514.09;4179580;28;20535;-48
2023/12/04 00:21:03;;;;;;;;;;;;;;;20.20;23.60;100514.84;4180418;28;20045;-47
2023/12/04 00:23:04;;;;;;;4.93;3.15;;;;;;;20.19;23.67;100507.78;4178364;28;19928;-51
2023/12/04 00:25:07;;;;;;;5.13;3.15;;;;;;;20.21;23.37;100510.34;4180056;28;20075;-46
2023/12/04 00:27:09;;;;;;;4.47;2.97;;;;;;;20.23;23.30;100511.06;4179913;28;20492;-50
2023/12/04 00:29:11;;;;;;;5.07;3.05;;;;;;;20.25;23.55;100499.28;4179854;28;20041;-49
2023/12/04 00:31:13;;;;;;;4.93;3.05;;;;;;;20.26;23.61;100495.66;4179806;28;20052;-49
2023/12/04 00:33:14;;;;;;;4.60;2.67;;;;;;;20.21;23.37;100497.84;4179684;28;20057;-50
2023/12/04 00:35:16;;;;;;;;;;;;;;;20.22;23.14;100499.53;4180437;28;20045;-50
2023/12/04 00:37:18;;;;;;;4.50;3.00;;;;;;;20.18;23.20;100498.06;4179534;28;19960;-46
2023/12/04 00:39:19;;;;;;;4.68;2.63;;;;;;;20.19;23.59;100496.28;4179509;28;20338;-47
2023/12/04 00:41:21;;;;;;;4.60;2.80;;;;;;;20.19;23.55;100486.44;4179505;28;20083;-45
2023/12/04 00:43:22;;;;;;;4.28;2.80;;;;;;;20.21;23.38;100475.66;4179678;28;20361;-48
2023/12/04 00:45:24;;;;;;;4.30;2.60;;;;;;;20.22;23.36;100478.19;4180007;28;20045;-51
2023/12/04 00:47:26;;;;;;;;;;;;;;;20.23;23.26;100479.03;4180116;28;20053;-48
2023/12/04 00:49:28;;;;;;;4.47;2.80;;;;;;;20.22;23.77;100474.66;4179760;28;19921;-49
2023/12/04 00:51:37;;;;;;;4.28;2.70;;;;;;;20.26;23.35;100468.09;4179719;28;20037;-45
2023/12/04 00:53:39;;;;;;;4.40;2.58;;;;;;;20.24;23.61;100451.34;4179323;28;20045;-45
2023/12/04 00:55:40;;;;;;;4.97;2.40;;;;;;;20.22;23.39;100451.47;4179836;28;20049;-48
2023/12/04 00:57:42;;;;;;;4.20;2.60;;;;;;;20.21;23.39;100441.78;4179638;28;20060;-47
2023/12/04 00:59:43;;;;;;;4.60;2.70;;;;;;;20.20;23.58;100445.41;4179560;28;20049;-51
2023/12/04 01:01:45;;;;;;;4.35;2.65;;;;;;;20.20;23.44;100437.41;4179572;28;20346;-46
2023/12/04 01:03:47;;;;;;;4.43;2.80;;;;;;;20.22;23.49;100432.78;4179463;28;20048;-47
2023/12/04 01:05:48;;;;;;;4.88;2.50;;;;;;;20.23;23.61;100429.16;4179540;28;20466;-50
2023/12/04 01:07:51;;;;;;;4.82;2.90;;;;;;;20.26;23.56;100425.38;4179388;28;20091;-48
2023/12/04 01:09:52;;;;;;;4.20;2.78;;;;;;;20.28;23.34;100431.47;4179514;28;20056;-49
2023/12/04 01:11:54;;;;;;;3.88;2.25;;;;;;;20.28;23.13;100423.44;4179537;28;20157;-50
2023/12/04 01:13:56;;;;;;;4.55;2.53;;;;;;;20.27;23.42;100419.06;4179457;28;20045;-48
2023/12/04 01:15:57;;;;;;;4.65;2.72;;;;;;;20.25;23.43;100413.81;4179516;28;20111;-46
2023/12/04 01:18:00;;;;;;;6.28;2.83;;;;;;;20.24;23.68;100413.97;4179651;28;20045;-48
2023/12/04 01:20:02;;;;;;;3.95;2.45;;;;;;;20.22;23.35;100406.09;4179620;28;20535;-50
2023/12/04 01:22:04;;;;;;;4.60;2.53;;;;;;;20.23;23.39;100402.44;4179262;28;20415;-48
2023/12/04 01:24:06;;;;;;;4.32;2.47;;;;;;;20.25;23.66;100391.63;4179605;28;20144;-50
2023/12/04 01:26:10;;;;;;;4.97;2.53;;;;;;;20.26;23.40;100388.81;4179498;28;20099;-51
2023/12/04 01:28:11;;;;;;;5.95;2.60;;;;;;;20.29;23.58;100385.06;4179361;28;20045;-49
2023/12/04 01:30:13;;;;;;;4.50;2.83;;;;;;;20.29;23.38;100376.22;4179451;28;20518;-49
2023/12/04 01:32:15;;;;;;;4.20;2.40;;;;;;;20.29;23.42;100379.72;4182241;28;20048;-49
2023/12/04 01:34:17;;;;;;;5.30;2.75;;;;;;;20.26;23.52;100372.81;4181548;28;20045;-48
2023/12/04 01:36:19;;;;;;;4.07;2.38;;;;;;;20.27;23.37;100373.66;4182356;28;20063;-50
2023/12/04 01:38:22;;;;;;;4.03;2.40;;;;;;;20.26;23.37;100377.31;4182284;28;20539;-48
2023/12/04 01:40:24;;;;;;;4.30;2.20;;;;;;;20.24;23.47;100369.44;4182465;28;20084;-49
2023/12/04 01:42:26;;;;;;;4.40;2.65;;;;;;;20.24;23.67;100374.78;4182105;28;20427;-50
2023/12/04 01:44:27;;;;;;;;;;;;;;;20.25;23.60;100373.78;4183001;28;20124;-50
2023/12/04 01:46:30;;;;;;;4.30;2.50;;;;;;;20.25;23.41;100378.28;4181239;28;19921;-51
2023/12/04 01:48:32;;;;;;;4.32;2.70;;;;;;;20.29;23.47;100366.34;4182299;28;20048;-48
2023/12/04 01:50:36;;;;;;;3.60;2.30;;;;;;;20.30;23.39;100370.72;4182009;28;20045;-50
2023/12/04 01:52:39;;;;;;;3.90;2.30;;;;;;;20.31;23.66;100371.59;4182369;28;20056;-47
2023/12/04 01:54:41;;;;;;;4.07;2.40;;;;;;;20.31;23.41;100363.59;4182162;28;20044;-46
2023/12/04 01:56:46;;;;;;;3.95;2.35;;;;;;;20.29;23.47;100373.53;4182362;28;20041;-49
2023/12/04 01:58:48;;;;;;;4.03;2.40;;;;;;;20.27;23.58;100355.81;4182115;28;20046;-47
2023/12/04 02:00:50;;;;;;;3.85;2.58;;;;;;;20.26;23.41;100345.25;4182350;28;20041;-47
2023/12/04 02:02:52;;;;;;;4.60;2.38;;;;;;;20.25;23.41;100355.09;4182181;28;20126;-51
2023/12/04 02:04:57;;;;;;;4.13;2.53;;;;;;;20.26;23.36;100335.41;4181872;28;20049;-50
2023/12/04 02:06:59;;;;;;;4.13;2.60;;;;;;;20.28;23.17;100332.66;4182094;28;20479;-47
2023/12/04 02:09:01;;;;;;;;;;;;;;;20.29;23.42;100352.16;4182760;28;20091;-48
2023/12/04 02:11:03;;;;;;;3.95;2.40;;;;;;;20.29;23.36;100361.03;4181657;28;19929;-50
2023/12/04 02:13:05;;;;;;;;;;;;;;;20.29;23.58;100361.03;4182646;28;20056;-48
2023/12/04 02:15:08;;;;;;;4.07;2.17;;;;;;;20.27;23.31;100374.50;4181878;28;19928;-50
2023/12/04 02:17:12;;;;;;;3.80;2.30;;;;;;;20.29;23.21;100368.19;4180516;28;20045;-47
2023/12/04 02:19:14;;;;;;;4.57;2.45;;;;;;;20.28;23.81;100364.69;4181342;28;20053;-49
2023/12/04 02:21:16;;;;;;;4.13;2.30;;;;;;;20.24;23.50;100356.09;4182072;28;20492;-50
2023/12/04 02:23:17;;;;;;;;;;;;;;;20.26;23.40;100356.78;4182101;28;20049;-52
2023/12/04 02:25:19;;;;;;;4.22;2.30;;;;;;;20.26;23.56;100353.28;4181811;28;19928;-49
2023/12/04 02:27:46;;;;;;;3.67;2.03;;;;;;;20.29;23.47;100339.66;4182096;28;20083;-50
2023/12/04 02:29:53;;;;;;;4.47;2.40;;;;;;;20.32;23.29;100333.25;4181583;28;20064;-49
2023/12/04 02:31:57;;;;;;;3.42;2.00;;;;;;;20.32;23.54;100344.75;4181725;28;20048;-49
2023/12/04 02:34:00;;;;;;;3.78;2.13;;;;;;;20.34;23.46;100344.63;4181743;28;20041;-47
2023/12/04 02:36:05;;;;;;;4.43;2.42;;;;;;;20.30;23.37;100341.34;4181818;28;20072;-49
2023/12/04 02:38:07;;;;;;;3.75;2.47;;;;;;;20.29;23.56;100357.50;4181269;28;20103;-47
2023/12/04 02:40:11;;;;;;;4.10;2.55;;;;;;;20.29;23.47;100360.19;4181614;28;20111;-47
2023/12/04 02:42:13;;;;;;;4.38;2.60;;;;;;;20.27;23.35;100350.47;4179554;28;20053;-50
2023/12/04 02:44:15;;;;;;;3.80;2.50;;;;;;;20.27;23.27;100352.31;4181443;28;20048;-47
2023/12/04 02:46:17;;;;;;;4.05;2.40;;;;;;;20.29;23.43;100353.00;4181473;28;20045;-50
2023/12/04 02:48:18;;;;;;;4.22;2.58;;;;;;;20.30;23.67;100359.22;4181324;28;20515;-48
2023/12/04 02:50:20;;;;;;;4.03;2.40;;;;;;;20.31;23.72;100347.56;4181291;28;20498;-47
2023/12/04 02:52:22;;;;;;;3.97;2.38;;;;;;;20.30;23.33;100332.50;4181535;28;20056;-48
2023/12/04 02:54:23;;;;;;;3.70;2.50;;;;;;;20.30;23.62;100328.00;4181321;28;20052;-48
2023/12/04 02:56:25;;;;;;;;;;;;;;;20.28;23.48;100324.63;4181715;28;20172;-45
2023/12/04 02:58:28;;;;;;;4.75;2.78;;;;;;;20.25;23.30;100325.72;4181320;28;20376;-48
2023/12/04 03:00:30;;;;;;;4.53;2.42;;;;;;;20.27;23.40;100322.94;4181440;28;20049;-48
2023/12/04 03:02:31;;;;;;;;;;;;;;;20.24;23.23;100318.69;4181283;28;20103;-48
2023/12/04 03:04:34;;;;;;;4.05;2.38;;;;;;;20.26;23.69;100318.56;4181280;28;19927;-50
2023/12/04 03:06:36;;;;;;;4.15;2.50;;;;;;;20.29;23.55;100312.13;4181100;28;20103;-47
2023/12/04 03:08:37;;;;;;;;;;;;;;;20.30;23.42;100297.78;4181670;28;20214;-49
2023/12/04 03:10:39;;;;;;;3.80;2.33;;;;;;;20.29;23.72;100304.94;4180972;28;20007;-47
2023/12/04 03:12:41;;;;;;;3.72;2.13;;;;;;;20.32;23.40;100287.84;4181226;28;20045;-51
2023/12/04 03:14:42;;;;;;;4.53;2.47;;;;;;;20.33;23.72;100281.50;4180956;28;20052;-50
2023/12/04 03:16:44;;;;;;;4.20;2.40;;;;;;;20.31;23.54;100278.13;4181015;28;20128;-45
2023/12/04 03:18:46;;;;;;;4.15;2.50;;;;;;;20.29;23.42;100272.91;4180721;28;20064;-48
2023/12/04 03:20:47;;;;;;;;;;;;;;;20.26;23.38;100276.66;4181370;28;20484;-50
2023/12/04 03:22:49;;;;;;;3.97;2.37;;;;;;;20.24;23.69;100267.97;4180879;28;19924;-49
2023/12/04 03:24:51;;;;;;;4.30;2.60;;;;;;;20.27;23.42;100264.19;4181176;28;20465;-49
2023/12/04 03:26:52;;;;;;;4.00;2.50;;;;;;;20.31;23.23;100262.09;4180992;28;20049;-50
2023/12/04 03:28:54;;;;;;;4.20;2.50;;;;;;;20.33;23.40;100254.78;4180523;28;20052;-48
2023/12/04 03:30:56;;;;;;;4.85;2.53;;;;;;;20.32;23.44;100253.94;4180828;28;20416;-48
2023/12/04 03:32:58;;;;;;;4.47;2.50;;;;;;;20.35;23.81;100264.41;4180266;28;20045;-45
2023/12/04 03:35:01;;;;;;;4.07;2.53;;;;;;;20.34;23.51;100253.81;4180680;28;20041;-49
2023/12/04 03:37:02;;;;;;;3.80;2.25;;;;;;;20.32;23.38;100263.81;4179443;28;20509;-48
2023/12/04 03:39:04;;;;;;;4.38;2.53;;;;;;;20.31;23.41;100256.75;4180543;28;20052;-51
2023/12/04 03:41:14;;;;;;;3.65;2.10;;;;;;;20.30;23.47;100263.91;4180706;28;20048;-44
2023/12/04 03:43:16;;;;;;;4.00;2.35;;;;;;;20.30;23.67;100257.75;4180349;28;20483;-47
2023/12/04 03:45:17;;;;;;;4.20;2.40;;;;;;;20.31;23.49;100243.41;4180589;28;20128;-54
2023/12/04 03:47:19;;;;;;;4.50;2.60;;;;;;;20.33;23.57;100242.31;4180110;28;20079;-47
2023/12/04 03:49:21;;;;;;;4.28;2.10;;;;;;;20.35;23.70;100239.50;4180465;28;20044;-49
2023/12/04 03:51:22;;;;;;;4.18;2.50;;;;;;;20.34;23.67;100236.00;4180382;28;20349;-46
2023/12/04 03:53:24;;;;;;;;;;;;;;;20.34;23.50;100233.31;4179080;28;20049;-47
2023/12/04 03:55:26;;;;;;;3.95;2.30;;;;;;;20.32;23.50;100237.94;4180408;28;19975;-50
2023/12/04 03:57:28;;;;;;;;;;;;;;;20.32;23.70;100235.25;4180745;28;20504;-44
2023/12/04 03:59:29;;;;;;;3.83;2.37;;;;;;;20.30;23.81;100236.38;4180312;28;19921;-58
2023/12/04 04:01:31;;;;;;;3.88;2.20;;;;;;;20.30;23.70;100231.88;4179895;28;20453;-48
2023/12/04 04:03:33;;;;;;;4.80;2.33;;;;;;;20.30;23.71;100239.88;4180291;28;20045;-44
2023/12/04 04:05:35;;;;;;;4.15;2.40;;;;;;;20.32;23.95;100237.09;4179212;28;20056;-46
2023/12/04 04:07:36;;;;;;;;;;;;;;;20.34;23.94;100235.13;4180795;28;20049;-44
2023/12/04 04:09:38;;;;;;;4.47;2.42;;;;;;;20.31;23.95;100228.22;4180411;28;19952;-50
2023/12/04 04:11:40;;;;;;;4.25;2.08;;;;;;;20.35;24.00;100229.69;4180291;28;20076;-48
2023/12/04 04:13:41;;;;;;;4.18;2.40;;;;;;;20.37;23.57;100232.22;4180045;28;20087;-48
2023/12/04 04:15:43;;;;;;;4.28;2.50;;;;;;;20.37;23.74;100243.72;4179838;28;20045;-47
2023/12/04 04:17:45;;;;;;;3.80;2.30;;;;;;;20.36;23.83;100251.88;4180267;28;20052;-51
2023/12/04 04:19:47;;;;;;;;;;;;;;;20.33;23.75;100234.28;4180750;28;20147;-50
2023/12/04 04:21:49;;;;;;;3.50;2.10;;;;;;;20.30;24.14;100239.03;4180310;28;20284;-48
2023/12/04 04:23:50;;;;;;;3.83;2.30;;;;;;;20.32;23.89;100231.75;4180105;28;20048;-50
2023/12/04 04:25:52;;;;;;;3.60;2.03;;;;;;;20.33;24.39;100222.75;4180128;28;20061;-47
2023/12/04 04:27:53;;;;;;;3.40;2.05;;;;;;;20.36;24.16;100212.66;4179901;28;20442;-50
2023/12/04 04:29:55;;;;;;;3.50;2.13;;;;;;;20.38;24.21;100205.34;4179574;28;20045;-47
2023/12/04 04:31:57;;;;;;;3.63;2.13;;;;;;;20.39;23.88;100201.72;4180136;28;20053;-47
2023/12/04 04:33:58;;;;;;;3.92;2.10;;;;;;;20.38;24.26;100185.84;4179832;28;20073;-51
2023/12/04 04:36:00;;;;;;;3.90;2.30;;;;;;;20.38;23.91;100188.50;4179799;28;20132;-48
2023/12/04 04:38:02;;;;;;;;;;;;;;;20.36;24.14;100175.25;4180438;28;20378;-49
2023/12/04 04:40:04;;;;;;;3.77;2.47;;;;;;;20.30;24.39;100167.78;4179770;28;19921;-47
2023/12/04 04:42:06;;;;;;;4.55;2.35;;;;;;;20.31;24.42;100172.16;4179785;28;20356;-44
2023/12/04 04:44:08;;;;;;;4.28;2.40;;;;;;;20.31;24.06;100165.97;4178303;28;20056;-46
2023/12/04 04:46:09;;;;;;;4.40;2.17;;;;;;;20.32;24.58;100151.63;4179975;28;20045;-47
2023/12/04 04:48:11;;;;;;;6.95;2.80;;;;;;;20.31;24.40;100145.44;4179875;28;20053;-46
2023/12/04 04:50:13;;;;;;;3.35;2.17;;;;;;;20.34;24.20;100142.53;4179606;28;20532;-45
2023/12/04 04:52:14;;;;;;;;;;;;;;;20.34;24.29;100136.31;4180346;28;20500;-49
2023/12/04 04:54:16;;;;;;;3.50;2.13;;;;;;;20.31;24.39;100129.41;4179775;28;19921;-49
2023/12/04 04:56:18;;;;;;;3.72;1.88;;;;;;;20.33;24.17;100126.59;4179700;28;20291;-50
2023/12/04 04:58:20;;;;;;;4.45;2.38;;;;;;;20.33;24.51;100122.13;4179917;28;20068;-50
2023/12/04 05:00:21;;;;;;;3.58;2.03;;;;;;;20.33;24.39;100123.94;4179662;28;20056;-46
2023/12/04 05:02:23;;;;;;;4.45;2.45;;;;;;;20.31;24.68;100116.06;4179754;28;20053;-47
2023/12/04 05:04:24;;;;;;;3.42;2.08;;;;;;;20.31;24.48;100115.22;4179715;28;20048;-48
2023/12/04 05:06:26;;;;;;;3.90;2.13;;;;;;;20.33;24.78;100118.59;4183081;28;20045;-48
2023/12/04 05:08:28;;;;;;;3.40;2.00;;;;;;;20.34;24.75;100104.25;4183102;28;20091;-48
2023/12/04 05:10:29;;;;;;;3.78;2.00;;;;;;;20.36;24.53;100115.66;4183117;28;20048;-50
2023/12/04 05:12:31;;;;;;;3.47;1.90;;;;;;;20.37;24.40;100096.84;4183064;28;20049;-49
2023/12/04 05:14:33;;;;;;;4.00;2.10;;;;;;;20.36;24.83;100105.81;4182545;28;20041;-48
2023/12/04 05:16:35;;;;;;;;;;;;;;;20.35;24.70;100100.63;4183248;28;20136;-49
2023/12/04 05:18:38;;;;;;;4.13;2.17;;;;;;;20.31;24.91;100084.00;4183030;28;20392;-47
2023/12/04 05:20:40;;;;;;;3.80;2.00;;;;;;;20.31;24.73;100088.53;4181480;28;20511;-49
2023/12/04 05:22:42;;;;;;;3.42;2.15;;;;;;;20.30;24.97;100093.00;4182708;28;20053;-52
2023/12/04 05:24:43;;;;;;;3.08;1.73;;;;;;;20.30;24.99;100084.16;4182884;28;20052;-50
2023/12/04 05:26:45;;;;;;;3.25;1.85;;;;;;;20.31;25.06;100077.84;4182847;28;20423;-48
2023/12/04 05:28:47;;;;;;;4.30;1.90;;;;;;;20.32;24.99;100067.03;4182471;28;20079;-52
2023/12/04 05:30:48;;;;;;;3.40;1.88;;;;;;;20.34;25.07;100065.06;4182828;28;20049;-50
2023/12/04 05:32:50;;;;;;;3.88;2.08;;;;;;;20.34;25.03;100046.38;4182735;28;20045;-49
2023/12/04 05:34:52;;;;;;;3.88;1.95;;;;;;;20.35;24.89;100045.41;4182836;28;20052;-51
2023/12/04 05:36:53;;;;;;;3.45;1.90;;;;;;;20.35;24.96;100042.72;4181531;28;20053;-49
2023/12/04 05:38:55;;;;;;;3.17;1.75;;;;;;;20.34;25.08;100041.03;4182591;28;20057;-49
2023/12/04 05:41:01;;;;;;;4.47;2.03;;;;;;;20.33;25.09;100034.00;4182531;28;20060;-50
2023/12/04 05:43:02;;;;;;;3.10;1.80;;;;;;;20.31;25.05;100022.59;4180861;28;20049;-47
2023/12/04 05:45:05;;;;;;;3.35;1.95;;;;;;;20.30;25.05;100020.06;4182367;28;20456;-46
2023/12/04 05:47:08;;;;;;;4.53;2.00;;;;;;;20.32;25.20;100020.78;4181099;28;20045;-51
2023/12/04 05:49:10;;;;;;;3.60;2.05;;;;;;;20.34;25.27;100002.78;4182456;28;20412;-49
2023/12/04 05:51:11;;;;;;;2.85;1.70;;;;;;;20.35;25.14;99999.13;4182213;28;20092;-52
2023/12/04 05:53:13;;;;;;;3.42;1.85;;;;;;;20.37;25.31;100010.53;4182314;28;20037;-49
2023/12/04 05:55:14;;;;;;;3.42;1.90;;;;;;;20.35;25.13;99999.13;4181270;28;20107;-47
2023/12/04 05:57:16;;;;;;;3.42;1.80;;;;;;;20.35;25.23;99993.81;4180654;28;20128;-50
2023/12/04 05:59:18;;;;;;;4.63;1.83;;;;;;;20.33;25.30;99993.94;4181089;28;20049;-49
2023/12/04 06:01:19;;;;;;;2.88;1.70;;;;;;;20.32;25.53;99989.56;4182343;28;20052;-49
2023/12/04 06:03:21;;;;;;;3.40;1.77;;;;;;;20.30;25.45;99985.34;4182236;28;20106;-51
2023/12/04 06:05:23;;;;;;;4.15;1.90;;;;;;;20.29;25.61;99975.66;4182205;28;20484;-49
2023/12/04 06:07:25;;;;;;;3.15;1.80;;;;;;;20.31;25.73;99971.84;4182272;28;20139;-47
2023/12/04 06:09:27;;;;;;;3.50;1.85;;;;;;;20.33;25.51;99967.25;4182247;28;20128;-47
2023/12/04 06:11:28;;;;;;;3.42;1.90;;;;;;;20.36;25.62;99960.78;4181687;28;20215;-48
2023/12/04 06:13:30;;;;;;;3.28;1.92;;;;;;;20.35;25.33;99954.59;4181997;28;20040;-48
2023/12/04 06:15:31;;;;;;;3.63;1.83;;;;;;;20.34;25.33;99944.91;4181985;28;20095;-48
2023/12/04 06:17:33;;;;;;;4.72;1.73;;;;;;;20.35;25.50;99945.72;4181057;28;20044;-47
2023/12/04 06:19:35;;;;;;;4.47;1.80;;;;;;;20.34;25.34;99942.22;4182041;28;20053;-50
2023/12/04 06:21:38;;;;;;;3.30;1.67;;;;;;;20.34;25.49;99936.03;4181889;28;20052;-49
2023/12/04 06:23:40;;;;;;;2.65;1.58;;;;;;;20.31;25.46;99929.13;4181874;28;20067;-48
2023/12/04 06:25:42;;;;;;;;;;;;;;;20.29;25.59;99917.75;4182111;28;20420;-49
2023/12/04 06:27:44;;;;;;;3.22;1.67;;;;;;;20.29;25.53;99916.91;4181704;28;19943;-50
2023/12/04 06:29:47;;;;;;;4.32;1.70;;;;;;;20.31;25.72;99921.13;4181632;28;20056;-50
2023/12/04 06:31:53;;;;;;;3.13;1.60;;;;;;;20.35;25.97;99924.38;4181690;28;20049;-46
2023/12/04 06:33:55;;;;;;;2.80;1.58;;;;;;;20.35;25.52;99924.38;4180479;28;20049;-48
2023/12/04 06:35:57;;;;;;;;;;;;;;;20.35;25.60;99903.00;4182142;28;20391;-48
2023/12/04 06:38:06;;;;;;;3.35;1.80;;;;;;;20.31;25.85;99921.13;4181681;28;19943;-49
2023/12/04 06:40:11;;;;;;;2.95;1.55;;;;;;;20.31;25.64;99913.13;4148306;28;20347;-48
2023/12/04 06:42:13;;;;;;;3.63;1.75;;;;;;;20.29;25.97;99920.41;4148670;28;20061;-50
2023/12/04 06:44:15;;;;;;;;;;;;;;;20.27;25.90;99915.22;4149058;28;20042;-51
2023/12/04 06:46:20;;;;;;;4.50;1.80;;;;;;;20.26;26.14;99902.84;4147575;28;20012;-48
2023/12/04 06:48:22;;;;;;;3.20;1.52;;;;;;;20.30;25.98;99894.56;4148740;28;20503;-66
2023/12/04 06:50:24;;;;;;;3.40;1.55;;;;;;;20.30;26.02;99887.38;4148486;28;20100;-65
2023/12/04 06:52:26;;;;;;;4.00;1.70;;;;;;;20.32;26.15;99881.94;4147494;28;20060;-65
2023/12/04 06:54:27;;;;;;;2.70;1.40;;;;;;;20.30;26.10;99876.72;4148843;28;20057;-66
2023/12/04 06:56:29;;;;;;;3.00;1.30;;;;;;;20.33;26.09;99878.25;4148360;28;20073;-66
2023/12/04 06:58:31;;;;;;;3.15;1.50;;;;;;;20.32;25.79;99873.91;4148643;28;20058;-66
2023/12/04 07:00:32;;;;;;;2.80;1.40;;;;;;;20.30;25.93;99867.88;4148413;28;20096;-67
2023/12/04 07:02:34;;;;;;;;;;;;;;;20.26;26.07;99865.47;4149080;28;20050;-66
2023/12/04 07:04:36;;;;;;;4.25;1.42;;;;;;;20.18;26.33;99849.28;4148628;28;19933;-66
2023/12/04 07:06:39;;;;;;;2.55;1.42;;;;;;;20.26;26.17;99859.28;4148266;28;20050;-66
2023/12/04 07:08:41;;;;;;;2.83;1.23;;;;;;;20.29;26.25;99856.31;4148228;28;20081;-66
2023/12/04 07:10:43;;;;;;;3.40;1.50;;;;;;;20.29;26.29;99852.81;4148209;28;20463;-66
2023/12/04 07:12:44;;;;;;;;;;;;;;;20.30;26.13;99855.34;4148866;28;20050;-65
2023/12/04 07:14:46;;;;;;;2.90;1.40;;;;;;;20.27;26.37;99840.44;4148543;28;19948;-66
2023/12/04 07:16:48;;;;;;;3.03;1.40;;;;;;;20.30;26.30;99857.19;4148240;28;20046;-66
2023/12/04 07:18:49;;;;;;;3.20;1.50;;;;;;;20.29;26.40;99856.31;4146997;28;20049;-65
2023/12/04 07:20:51;;;;;;;;;;;;;;;20.27;26.36;99851.13;4148672;28;20527;-65
2023/12/04 07:22:53;;;;;;;2.40;1.40;;;;;;;20.23;26.50;99855.06;4148294;28;19928;-65
2023/12/04 07:24:55;;;;;;;3.42;1.52;;;;;;;20.24;26.39;99858.56;4147795;28;20490;-65
2023/12/04 07:26:56;;;;;;;2.88;1.50;;;;;;;20.19;26.51;99842.97;4148039;28;20144;-64
2023/12/04 07:28:58;;;;;;;2.88;1.40;;;;;;;20.25;26.52;99845.06;4148237;28;20053;-64
2023/12/04 07:31:03;;;;;;;2.55;1.35;;;;;;;20.31;26.53;99859.72;4147869;28;20301;-67
2023/12/04 07:33:05;;;;;;;3.35;1.42;;;;;;;20.31;26.30;99853.53;4147940;28;20050;-65
2023/12/04 07:35:10;;;;;;;3.63;1.40;;;;;;;20.32;26.64;99864.06;4148046;28;20049;-65
2023/12/04 07:37:12;;;;;;;2.90;1.40;;;;;;;20.31;26.41;99858.88;4147910;28;20050;-65
2023/12/04 07:39:14;;;;;;;2.50;1.50;;;;;;;20.30;26.37;99851.84;4165929;28;20110;-65
2023/12/04 07:41:17;;;;;;;2.88;1.42;;;;;;;20.28;26.53;99849.31;4180912;28;20059;-65
2023/12/04 07:43:19;;;;;;;2.80;1.30;;;;;;;20.27;26.53;99850.31;4180389;28;20061;-65
2023/12/04 07:45:21;;;;;;;3.25;1.50;;;;;;;20.24;26.60;99840.75;4180444;28;20051;-65
2023/12/04 07:47:23;;;;;;;3.30;1.50;;;;;;;20.26;26.64;99841.44;4180573;28;20048;-64
2023/12/04 07:49:27;;;;;;;3.33;1.52;;;;;;;20.30;26.58;99838.50;4180673;28;20057;-65
2023/12/04 07:51:29;;;;;;;2.70;1.25;;;;;;;20.29;26.60;99834.97;4180840;28;20049;-67
2023/12/04 07:53:31;;;;;;;2.42;1.25;;;;;;;20.31;26.50;99837.50;4179885;28;20049;-66
2023/12/04 07:55:33;;;;;;;3.13;1.42;;;;;;;20.31;26.73;99837.50;4180578;28;20076;-67
2023/12/04 07:57:35;;;;;;;2.50;1.40;;;;;;;20.28;26.75;99827.97;4180596;28;20045;-65
2023/12/04 07:59:36;;;;;;;4.30;1.55;;;;;;;20.24;26.75;99807.84;4180576;28;20076;-64
2023/12/04 08:01:39;;;;;;;3.60;1.48;;;;;;;20.27;26.57;99810.25;4180425;28;20483;-65
2023/12/04 08:03:40;;;;;;;3.70;1.40;;;;;;;20.25;26.67;99815.69;4180494;28;20124;-65
2023/12/04 08:05:42;;;;;;;3.65;1.40;;;;;;;20.25;27.08;99812.22;4180396;28;20476;-66
2023/12/04 08:07:44;;;;;;;3.20;1.50;;;;;;;20.26;26.78;99814.72;4180151;28;20063;-65
2023/12/04 08:09:46;;;;;;;2.78;1.40;;;;;;;20.26;26.92;99801.38;4180100;28;20106;-66
2023/12/04 08:11:48;;;;;;;2.72;1.20;;;;;;;20.30;26.96;99801.09;4180397;28;20158;-65
2023/12/04 08:13:49;;;;;;;;;;;;;;;20.30;26.90;99799.28;4180889;28;20462;-65
2023/12/04 08:15:51;;;;;;;2.67;1.50;;;;;;;20.24;27.05;99792.69;4179147;28;19920;-65
2023/12/04 08:17:53;;;;;;;2.40;1.10;;;;;;;20.29;26.53;99783.41;4180195;28;20048;-66
2023/12/04 08:19:54;;;;;;;3.08;1.40;;;;;;;20.31;26.68;99792.94;4180128;28;20045;-65
2023/12/04 08:21:56;;;;;;;2.92;1.30;;;;;;;20.28;26.92;99782.56;4179752;28;20049;-64
2023/12/04 08:23:58;;;;;;;2.90;1.40;;;;;;;20.25;26.85;99794.34;4179901;28;20056;-65
2023/12/04 08:26:00;;;;;;;3.28;1.40;;;;;;;20.22;27.08;99778.63;4180169;28;20103;-65
2023/12/04 08:28:03;;;;;;;2.53;1.30;;;;;;;20.25;27.06;99791.69;4180078;28;20045;-65
2023/12/04 08:30:05;;;;;;;3.05;1.17;;;;;;;20.30;27.03;99787.75;4179862;28;20124;-64
2023/12/04 08:32:07;;;;;;;2.97;1.20;;;;;;;20.29;27.10;99786.06;4180047;28;20049;-65
2023/12/04 08:34:09;;;;;;;3.60;1.60;;;;;;;20.30;27.16;99777.91;4179927;28;20049;-64
2023/12/04 08:36:11;;;;;;;2.15;1.20;;;;;;;20.34;26.82;99795.34;4179715;28;20096;-66
2023/12/04 08:38:13;;;;;;;3.13;1.30;;;;;;;20.33;26.97;99787.47;4179904;28;20040;-65
2023/12/04 08:40:15;;;;;;;2.72;1.13;;;;;;;20.33;27.11;99791.00;4179510;28;20052;-66
2023/12/04 08:42:17;;;;;;;2.67;1.20;;;;;;;20.33;26.92;99784.78;4179723;28;20053;-64
2023/12/04 08:44:24;;;;;;;2.42;1.15;;;;;;;20.31;27.04;99790.28;4179959;28;20072;-64
2023/12/04 08:46:26;;;;;;;3.30;1.20;;;;;;;20.32;27.21;99777.78;4179933;28;20102;-65
2023/12/04 08:48:29;;;;;;;2.28;1.17;;;;;;;20.34;26.92;99770.47;4178441;28;20083;-66
2023/12/04 08:50:31;;;;;;;2.55;1.25;;;;;;;20.36;27.29;99765.84;4179637;28;20041;-65
2023/12/04 08:52:33;;;;;;;3.65;1.27;;;;;;;20.36;27.15;99768.50;4179758;28;20128;-66
2023/12/04 08:54:38;;;;;;;2.35;1.02;;;;;;;20.30;27.21;99753.88;4178494;28;20041;-66
2023/12/04 08:56:41;;;;;;;1.98;1.02;;;;;;;20.37;27.04;99751.50;4179915;28;20052;-64
2023/12/04 08:58:42;;;;;;;2.72;1.20;;;;;;;20.35;27.47;99754.31;4179881;28;20484;-65
2023/12/04 09:00:44;;;;;;;4.22;1.40;;;;;;;20.35;27.35;99753.47;4179620;28;20068;-66
2023/12/04 09:02:48;;;;;;;2.42;1.10;;;;;;;20.33;27.03;99758.09;4179894;28;20061;-66
2023/12/04 09:04:58;;;;;;;;;;;;;;;20.30;27.51;99748.53;4179092;28;20477;-66
2023/12/04 09:07:00;;;;;;;;;;;;;;;20.28;27.32;99750.53;4180242;28;20397;-65
2023/12/04 09:09:22;;;;;;;2.95;1.27;;;;;;;20.29;27.41;99738.00;4178620;28;19921;-65
2023/12/04 09:11:23;;;;;;;2.72;1.20;;;;;;;20.34;27.48;99746.44;4179717;28;20051;-68
2023/12/04 09:13:25;;;;;;;2.55;1.02;;;;;;;20.35;27.49;99734.75;4179826;28;20049;-66
2023/12/04 09:15:27;;;;;;;;;;;;;;;20.38;27.46;99742.50;4179914;28;20273;-65
2023/12/04 09:17:29;;;;;;;3.28;1.20;;;;;;;20.36;27.45;99741.78;4179790;28;20299;-66
2023/12/04 09:19:40;;;;;;;3.72;1.30;;;;;;;20.36;27.27;99734.63;4179334;28;20060;-66
2023/12/04 09:21:44;;;;;;;2.35;1.13;;;;;;;20.35;27.05;99738.31;4179773;28;20080;-65
2023/12/04 09:23:49;;;;;;;3.13;1.00;;;;;;;20.37;27.41;99748.81;4179500;28;20396;-65
2023/12/04 09:25:51;;;;;;;2.85;1.33;;;;;;;20.36;27.36;99736.47;4179472;28;20079;-65
2023/12/04 09:27:53;;;;;;;2.67;1.30;;;;;;;20.34;27.47;99728.59;4179429;28;20048;-67
2023/12/04 09:29:54;;;;;;;2.50;1.25;;;;;;;20.39;27.62;99728.16;4179454;28;20055;-67
2023/12/04 09:31:56;;;;;;;2.88;1.13;;;;;;;20.39;27.46;99717.47;4179723;28;20570;-66
2023/12/04 09:33:58;;;;;;;2.72;1.25;;;;;;;20.38;27.29;99719.31;4179697;28;20427;-67
2023/12/04 09:36:00;;;;;;;2.45;1.02;;;;;;;20.40;27.29;99722.69;4179441;28;20049;-66